| time (UTC) | temp F | wind direction | speed MPH | gust MPH | rain 1hr in | rain 24hr in | rain mn in | humidity % | barometer mb |
| 20260507140050 | 52 | 271 | 0.0 | 0.0 | 0.00 | 0.00 | 0.00 | 78 | 1013.9 |
| 20260507134536 | 48 | 310 | 0.0 | 0.0 | 0.00 | 0.00 | 0.00 | 85 | 1013.9 |
| 20260507133035 | 46 | 32 | 0.0 | 1.0 | 0.00 | 0.00 | 0.00 | 85 | 1014.0 |
| 20260507131536 | 45 | 23 | 0.0 | 3.0 | 0.00 | 0.00 | 0.00 | 85 | 1014.0 |
| 20260507130131 | 43 | 20 | 0.0 | 1.0 | 0.00 | 0.00 | 0.00 | 85 | 1013.6 |
| 20260507124529 | 43 | 25 | 0.0 | 0.0 | 0.00 | 0.00 | 0.00 | 88 | 1013.3 |
| 20260507123032 | 44 | 56 | 0.0 | 3.0 | 0.00 | 0.00 | 0.00 | 81 | 1013.3 |
| 20260507121536 | 46 | 281 | 1.0 | 3.0 | 0.00 | 0.00 | 0.00 | 86 | 1013.0 |
| 20260507120023 | 46 | 341 | 0.0 | 2.0 | 0.00 | 0.00 | 0.00 | 79 | 1013.1 |
| 20260507114522 | 46 | 238 | 0.0 | 1.0 | 0.00 | 0.00 | 0.00 | 84 | 1013.3 |
| 20260507113031 | 47 | 139 | 0.0 | 2.0 | 0.00 | 0.00 | 0.00 | 84 | 1013.2 |
| 20260507111523 | 46 | 91 | 1.0 | 3.0 | 0.00 | 0.00 | 0.00 | 85 | 1013.2 |
| 20260507110017 | 47 | 305 | 0.0 | 0.0 | 0.00 | 0.00 | 0.00 | 82 | 1013.0 |
| 20260507104516 | 48 | 239 | 2.0 | 4.0 | 0.00 | 0.00 | 0.00 | 83 | 1012.8 |
| 20260507103010 | 50 | 64 | 1.0 | 6.0 | 0.00 | 0.00 | 0.00 | 80 | 1012.7 |
| 20260507101510 | 50 | 264 | 2.0 | 7.0 | 0.00 | 0.00 | 0.00 | 79 | 1012.6 |
| 20260507100012 | 51 | 249 | 5.0 | 9.0 | 0.00 | 0.00 | 0.00 | 77 | 1012.5 |
| 20260507094507 | 50 | 262 | 6.0 | 8.0 | 0.00 | 0.00 | 0.00 | 79 | 1012.5 |
| 20260507093006 | 49 | 256 | 2.0 | 6.0 | 0.00 | 0.00 | 0.00 | 81 | 1012.5 |
| 20260507091609 | 51 | 162 | 0.0 | 5.0 | 0.00 | 0.00 | 0.00 | 77 | 1012.7 |
| 20260507090057 | 51 | 274 | 2.0 | 5.0 | 0.00 | 0.00 | 0.00 | 76 | 1012.2 |
| 20260507084558 | 52 | 269 | 3.0 | 6.0 | 0.00 | 0.00 | 0.00 | 75 | 1012.4 |
| 20260507083059 | 54 | 250 | 3.0 | 10.0 | 0.00 | 0.00 | 0.00 | 71 | 1012.2 |
| 20260507081552 | 55 | 257 | 9.0 | 13.0 | 0.00 | 0.00 | 0.00 | 69 | 1011.7 |
| 20260507080114 | 55 | 275 | 9.0 | 13.0 | 0.00 | 0.00 | 0.00 | 67 | 1011.7 |
| 20260507074552 | 55 | 240 | 10.0 | 14.0 | 0.00 | 0.00 | 0.00 | 68 | 1011.7 |
| 20260507073050 | 54 | 250 | 7.0 | 11.0 | 0.00 | 0.00 | 0.00 | 72 | 1011.9 |
| 20260507071557 | 52 | 246 | 5.0 | 8.0 | 0.00 | 0.00 | 0.00 | 76 | 1011.9 |
| 20260507070038 | 53 | 250 | 2.0 | 5.0 | 0.00 | 0.00 | 0.00 | 74 | 1011.9 |
| 20260507064537 | 54 | 285 | 0.0 | 5.0 | 0.00 | 0.00 | 0.00 | 71 | 1011.9 |
| 20260507063039 | 56 | 255 | 1.0 | 5.0 | 0.00 | 0.00 | 0.00 | 68 | 1011.8 |
| 20260507061536 | 57 | 297 | 2.0 | 4.0 | 0.00 | 0.00 | 0.00 | 65 | 1011.7 |
| 20260507060033 | 58 | 311 | 3.0 | 8.0 | 0.00 | 0.00 | 0.00 | 61 | 1011.2 |
| 20260507054533 | 59 | 298 | 3.0 | 7.0 | 0.00 | 0.00 | 0.00 | 60 | 1011.2 |
| 20260507053037 | 60 | 257 | 3.0 | 6.0 | 0.00 | 0.00 | 0.00 | 58 | 1011.2 |
| 20260507051534 | 61 | 292 | 3.0 | 6.0 | 0.00 | 0.00 | 0.00 | 57 | 1011.0 |
| 20260507050031 | 62 | 307 | 4.0 | 6.0 | 0.00 | 0.00 | 0.00 | 54 | 1010.9 |
| 20260507044533 | 62 | 297 | 4.0 | 9.0 | 0.00 | 0.00 | 0.00 | 54 | 1010.9 |
| 20260507043036 | 62 | 297 | 3.0 | 8.0 | 0.00 | 0.00 | 0.00 | 53 | 1010.7 |
| 20260507041529 | 63 | 297 | 4.0 | 9.0 | 0.00 | 0.00 | 0.00 | 50 | 1010.7 |
| 20260507040028 | 64 | 290 | 6.0 | 11.0 | 0.00 | 0.00 | 0.00 | 48 | 1010.6 |
| 20260507034528 | 64 | 314 | 6.0 | 11.0 | 0.00 | 0.00 | 0.00 | 46 | 1010.3 |
| 20260507033028 | 65 | 295 | 3.0 | 6.0 | 0.00 | 0.00 | 0.00 | 43 | 1010.3 |
| 20260507031526 | 66 | 259 | 4.0 | 7.0 | 0.00 | 0.00 | 0.00 | 40 | 1010.2 |
| 20260507030030 | 67 | 299 | 4.0 | 9.0 | 0.00 | 0.00 | 0.00 | 37 | 1010.1 |
| 20260507024525 | 68 | 307 | 4.0 | 8.0 | 0.00 | 0.00 | 0.00 | 36 | 1009.7 |
| 20260507023028 | 70 | 311 | 4.0 | 8.0 | 0.00 | 0.00 | 0.00 | 33 | 1009.7 |
| 20260507021524 | 71 | 299 | 3.0 | 6.0 | 0.00 | 0.00 | 0.00 | 31 | 1009.4 |
| 20260507020025 | 73 | 300 | 4.0 | 7.0 | 0.00 | 0.00 | 0.00 | 29 | 1009.4 |
| 20260507014522 | 73 | 290 | 4.0 | 8.0 | 0.00 | 0.00 | 0.00 | 32 | 1009.4 |
| 20260507013032 | 74 | 305 | 4.0 | 9.0 | 0.00 | 0.00 | 0.00 | 31 | 1009.3 |
| 20260507011534 | 74 | 307 | 5.0 | 8.0 | 0.00 | 0.00 | 0.00 | 31 | 1009.1 |
| 20260507010019 | 74 | 290 | 4.0 | 8.0 | 0.00 | 0.00 | 0.00 | 33 | 1009.2 |
| 20260507004519 | 74 | 300 | 5.0 | 12.0 | 0.00 | 0.00 | 0.00 | 35 | 1009.2 |
| 20260507003019 | 76 | 325 | 5.0 | 10.0 | 0.00 | 0.00 | 0.00 | 33 | 1009.2 |
| 20260507001516 | 78 | 285 | 5.0 | 11.0 | 0.00 | 0.00 | 0.00 | 32 | 1009.1 |
| 20260507000017 | 80 | 266 | 4.0 | 8.0 | 0.00 | 0.00 | 0.00 | 32 | 1009.2 |
| 20260506234515 | 82 | 256 | 9.0 | 16.0 | 0.00 | 0.00 | 0.00 | 39 | 1009.1 |
| 20260506233015 | 83 | 212 | 8.0 | 16.0 | 0.00 | 0.00 | 0.00 | 38 | 1009.0 |
| 20260506231511 | 82 | 209 | 10.0 | 15.0 | 0.00 | 0.00 | 0.00 | 38 | 1009.0 |
| 20260506230009 | 80 | 221 | 8.0 | 13.0 | 0.00 | 0.00 | 0.00 | 42 | 1009.1 |
| 20260506224514 | 79 | 205 | 5.0 | 15.0 | 0.00 | 0.00 | 0.00 | 41 | 1009.3 |
| 20260506223004 | 81 | 205 | 6.0 | 13.0 | 0.00 | 0.00 | 0.00 | 39 | 1009.6 |
| 20260506221504 | 81 | 203 | 5.0 | 12.0 | 0.00 | 0.00 | 0.00 | 39 | 1009.8 |
| 20260506220003 | 80 | 237 | 6.0 | 14.0 | 0.00 | 0.00 | 0.00 | 42 | 1010.1 |
| 20260506214502 | 80 | 253 | 8.0 | 11.0 | 0.00 | 0.00 | 0.00 | 44 | 1010.2 |
| 20260506213001 | 82 | 238 | 2.0 | 11.0 | 0.00 | 0.00 | 0.00 | 40 | 1010.3 |
| 20260506211559 | 81 | 252 | 7.0 | 13.0 | 0.00 | 0.00 | 0.00 | 42 | 1010.4 |
| 20260506210120 | 80 | 242 | 9.0 | 13.0 | 0.00 | 0.00 | 0.00 | 42 | 1010.6 |
| 20260506204557 | 80 | 207 | 3.0 | 9.0 | 0.00 | 0.00 | 0.00 | 46 | 1010.7 |
| 20260506203142 | 79 | 233 | 6.0 | 10.0 | 0.00 | 0.00 | 0.00 | 42 | 1010.9 |
| 20260506201554 | 80 | 212 | 4.0 | 12.0 | 0.00 | 0.00 | 0.00 | 42 | 1011.0 |
| 20260506200053 | 80 | 233 | 6.0 | 12.0 | 0.00 | 0.00 | 0.00 | 40 | 1011.1 |
| 20260506194551 | 78 | 197 | 4.0 | 11.0 | 0.00 | 0.00 | 0.00 | 44 | 1011.3 |
| 20260506193050 | 78 | 259 | 7.0 | 10.0 | 0.00 | 0.00 | 0.00 | 43 | 1011.4 |
| 20260506191552 | 77 | 222 | 6.0 | 14.0 | 0.00 | 0.00 | 0.00 | 45 | 1011.7 |
| 20260506190050 | 78 | 283 | 6.0 | 12.0 | 0.00 | 0.00 | 0.00 | 47 | 1011.7 |
| 20260506184554 | 77 | 252 | 2.0 | 9.0 | 0.00 | 0.00 | 0.00 | 49 | 1011.7 |
| 20260506183043 | 76 | 248 | 3.0 | 9.0 | 0.00 | 0.00 | 0.00 | 48 | 1011.5 |
| 20260506181540 | 76 | 232 | 4.0 | 9.0 | 0.00 | 0.00 | 0.00 | 47 | 1011.7 |
| 20260506180038 | 75 | 215 | 6.0 | 11.0 | 0.00 | 0.00 | 0.00 | 46 | 1011.8 |
| 20260506174535 | 73 | 221 | 5.0 | 12.0 | 0.00 | 0.00 | 0.00 | 53 | 1011.9 |
| 20260506173044 | 73 | 211 | 4.0 | 11.0 | 0.00 | 0.00 | 0.00 | 53 | 1011.8 |
| 20260506171535 | 73 | 218 | 4.0 | 9.0 | 0.00 | 0.00 | 0.00 | 51 | 1011.9 |
| 20260506170029 | 71 | 220 | 4.0 | 10.0 | 0.00 | 0.00 | 0.00 | 55 | 1012.2 |
| 20260506164625 | 70 | 254 | 6.0 | 12.0 | 0.00 | 0.00 | 0.00 | 57 | 1012.2 |
| 20260506163040 | 69 | 225 | 6.0 | 11.0 | 0.00 | 0.00 | 0.00 | 57 | 1012.2 |
| 20260506161525 | 69 | 169 | 4.0 | 8.0 | 0.00 | 0.00 | 0.00 | 58 | 1012.2 |
| 20260506160020 | 68 | 229 | 4.0 | 10.0 | 0.00 | 0.00 | 0.00 | 60 | 1012.2 |
| 20260506154528 | 66 | 202 | 4.0 | 10.0 | 0.00 | 0.00 | 0.00 | 63 | 1012.2 |
| 20260506153011 | 65 | 169 | 2.0 | 8.0 | 0.00 | 0.00 | 0.00 | 68 | 1012.1 |
| 20260506151511 | 63 | 155 | 0.0 | 4.0 | 0.00 | 0.00 | 0.00 | 73 | 1012.2 |
| 20260506150006 | 62 | 139 | 1.0 | 6.0 | 0.00 | 0.00 | 0.00 | 74 | 1012.3 |
| 20260506144559 | 59 | 133 | 1.0 | 6.0 | 0.00 | 0.00 | 0.00 | 78 | 1012.1 |
| 20260506143056 | 57 | 83 | 1.0 | 3.0 | 0.00 | 0.00 | 0.00 | 77 | 1012.2 |
| 20260506141553 | 54 | 57 | 0.0 | 2.0 | 0.00 | 0.00 | 0.00 | 80 | 1012.1 |